Circleville, Utah
Current Conditions -  °F | °C
As of 4:53 AM on Sunday 25 Jan 2015 (Local Time) from KBCE Reporting Station
Clear Clear  
Wind Chill: 11°   Ceiling: Unl
Heat Index: 21°   Visibility: 10mi
Dew Point: 19°   Wind: 8mph
Humidity: 92%   Direction: 320°NW
Pressure: 30.38"   Gusts: NA
Location:  38.17°N, 112.27°W
Report Text: KBCE 251153Z AUTO 32007KT 10SM CLR M06/M07 A3038 RMK AO2 SLP260 T10611072 11033 21067 55001 $
Loading
Personal Weather Stations






























Interactive Weather Map New forecast layout! Learn more

10-Day Weather Forecast

Advertisements
Track Severe Weather on mobile